Time;durP1;ratioP1;P1;durP2;ratioP2;P2;SDS_P1;SDS_P2;PMS_P1;PMS_P2;Temp;Humidity;BMP_temperature;BMP_pressure;BME280_temperature;BME280_humidity;BME280_pressure;Samples;Min_cycle;Max_cycle;Signal;HPM_P1;HPM_P2
2022/10/20 00:01:12;;;;;;;0.43;0.28;;;11.50;99.90;;;;;;5007659;28;20183;-68
2022/10/20 00:03:38;;;;;;;1.75;0.10;;;11.50;99.90;;;;;;5009188;28;20211;-69
2022/10/20 00:06:16;;;;;;;0.00;0.00;;;11.50;99.90;;;;;;5008952;28;20179;-69
2022/10/20 00:08:43;;;;;;;0.05;0.05;;;11.50;99.90;;;;;;5009885;28;20187;-68
2022/10/20 00:11:10;;;;;;;0.00;0.00;;;11.50;99.90;;;;;;5005767;28;20194;-68
2022/10/20 00:13:36;;;;;;;0.00;0.00;;;11.50;99.90;;;;;;4999231;28;20712;-68
2022/10/20 00:16:02;;;;;;;0.10;0.08;;;11.40;99.90;;;;;;4995742;28;20642;-68
2022/10/20 00:18:28;;;;;;;0.22;0.22;;;11.50;99.90;;;;;;5006237;28;20309;-68
2022/10/20 00:20:54;;;;;;;0.00;0.00;;;11.40;99.90;;;;;;5005912;28;20394;-68
2022/10/20 00:23:20;;;;;;;0.17;0.17;;;11.40;99.90;;;;;;5001788;28;20179;-68
2022/10/20 00:25:45;;;;;;;0.00;0.00;;;11.40;99.90;;;;;;5011386;28;20183;-68
2022/10/20 00:28:11;;;;;;;0.10;0.10;;;11.40;99.90;;;;;;5008521;28;20697;-68
2022/10/20 00:30:37;;;;;;;0.10;0.10;;;11.40;99.90;;;;;;5009899;28;20234;-68
2022/10/20 00:33:04;;;;;;;0.73;0.55;;;11.40;99.90;;;;;;5000645;28;20186;-68
2022/10/20 00:35:31;;;;;;;0.43;0.10;;;11.30;99.90;;;;;;4996821;28;20246;-68
2022/10/20 00:37:57;;;;;;;0.40;0.17;;;11.30;99.90;;;;;;5008138;28;20269;-68
2022/10/20 00:40:22;;;;;;;0.08;0.08;;;11.40;99.90;;;;;;5000746;28;20188;-68
2022/10/20 00:42:48;;;;;;;0.75;0.70;;;11.40;99.90;;;;;;5007805;28;20540;-68
2022/10/20 00:45:17;;;;;;;0.00;0.00;;;11.30;99.90;;;;;;5006845;28;20191;-68
2022/10/20 00:47:47;;;;;;;0.00;0.00;;;11.30;99.90;;;;;;5000254;28;20210;-68
2022/10/20 00:50:15;;;;;;;0.00;0.00;;;11.30;99.90;;;;;;5002337;28;20197;-68
2022/10/20 00:52:43;;;;;;;0.25;0.20;;;11.30;99.90;;;;;;4998188;28;20207;-69
2022/10/20 00:55:10;;;;;;;0.20;0.20;;;11.30;99.90;;;;;;5004052;28;20190;-69
2022/10/20 00:57:37;;;;;;;0.10;0.10;;;11.30;99.90;;;;;;4995831;28;20235;-69
2022/10/20 01:00:05;;;;;;;0.05;0.05;;;11.30;99.90;;;;;;4999010;28;20187;-69
2022/10/20 01:02:31;;;;;;;0.22;0.22;;;11.30;99.90;;;;;;5007434;28;20218;-69
2022/10/20 01:04:57;;;;;;;0.00;0.00;;;11.30;99.90;;;;;;5003009;28;20259;-69
2022/10/20 01:07:23;;;;;;;0.47;0.47;;;11.20;99.90;;;;;;5010087;28;20191;-69
2022/10/20 01:09:48;;;;;;;0.00;0.00;;;11.20;99.90;;;;;;5010359;28;20657;-69
2022/10/20 01:12:25;;;;;;;0.00;0.00;;;11.20;99.90;;;;;;5006598;28;20214;-68
2022/10/20 01:15:06;;;;;;;0.10;0.10;;;11.20;99.90;;;;;;5007155;28;20240;-69
2022/10/20 01:17:49;;;;;;;0.00;0.00;;;11.20;99.90;;;;;;5002314;28;20175;-69
2022/10/20 01:20:33;;;;;;;0.25;0.25;;;11.20;99.90;;;;;;5005218;28;20666;-69
2022/10/20 01:23:39;;;;;;;0.08;0.08;;;11.10;99.90;;;;;;4998396;28;20263;-69
2022/10/20 01:26:08;;;;;;;0.32;0.30;;;11.10;99.90;;;;;;5002474;28;20215;-69
2022/10/20 01:28:45;;;;;;;0.00;0.00;;;11.10;99.90;;;;;;5003016;28;20576;-69
2022/10/20 01:31:39;;;;;;;0.00;0.00;;;11.10;99.90;;;;;;4995724;28;20190;-68
2022/10/20 01:34:24;;;;;;;0.00;0.00;;;11.10;99.90;;;;;;4998659;28;20179;-69
2022/10/20 01:37:15;;;;;;;1.08;0.30;;;11.00;99.90;;;;;;5000180;28;20178;-69
2022/10/20 01:39:55;;;;;;;0.20;0.20;;;11.10;99.90;;;;;;5001170;28;20218;-69
2022/10/20 01:42:24;;;;;;;0.00;0.00;;;11.00;99.90;;;;;;4998172;28;20183;-69
2022/10/20 01:44:54;;;;;;;0.38;0.30;;;11.00;99.90;;;;;;4996502;28;20638;-69
2022/10/20 01:47:23;;;;;;;0.10;0.10;;;11.00;99.90;;;;;;5007209;28;20201;-68
2022/10/20 01:49:49;;;;;;;0.20;0.20;;;10.90;99.90;;;;;;5001770;28;20241;-68
2022/10/20 01:52:16;;;;;;;0.00;0.00;;;10.90;99.90;;;;;;5002501;28;20214;-68
2022/10/20 01:54:41;;;;;;;0.00;0.00;;;10.90;99.90;;;;;;5007400;28;20187;-68
2022/10/20 01:57:28;;;;;;;0.10;0.10;;;10.80;99.90;;;;;;4996415;28;20186;-68
2022/10/20 02:00:15;;;;;;;0.45;0.45;;;10.80;99.90;;;;;;5003514;28;20258;-68
2022/10/20 02:02:58;;;;;;;0.10;0.10;;;10.80;99.90;;;;;;5006678;28;20603;-68
2022/10/20 02:06:00;;;;;;;0.00;0.00;;;10.80;99.90;;;;;;5008951;28;20188;-68
2022/10/20 02:08:30;;;;;;;0.00;0.00;;;10.70;99.90;;;;;;5009341;28;20194;-69
2022/10/20 02:11:00;;;;;;;0.00;0.00;;;10.70;99.90;;;;;;5006409;28;20194;-69
2022/10/20 02:13:27;;;;;;;0.00;0.00;;;10.70;99.90;;;;;;5004574;28;20201;-68
2022/10/20 02:15:57;;;;;;;0.05;0.05;;;10.80;99.90;;;;;;5009099;28;20523;-69
2022/10/20 02:18:35;;;;;;;0.00;0.00;;;10.70;99.90;;;;;;5001045;28;20215;-68
2022/10/20 02:21:02;;;;;;;0.00;0.00;;;10.80;99.90;;;;;;5007231;28;20244;-69
2022/10/20 02:23:34;;;;;;;0.08;0.08;;;10.70;99.90;;;;;;4994554;28;20187;-69
2022/10/20 02:26:04;;;;;;;0.00;0.00;;;10.70;99.90;;;;;;4994986;28;20253;-69
2022/10/20 02:28:33;;;;;;;0.00;0.00;;;10.70;99.90;;;;;;4996061;28;20198;-69
2022/10/20 02:30:58;;;;;;;0.00;0.00;;;10.70;99.90;;;;;;4997718;28;20539;-68
2022/10/20 02:33:25;;;;;;;1.10;0.10;;;10.70;99.90;;;;;;4996129;28;20179;-69
2022/10/20 02:35:56;;;;;;;0.85;0.52;;;10.70;99.90;;;;;;5003986;28;20182;-69
2022/10/20 02:38:22;;;;;;;0.20;0.20;;;10.70;99.90;;;;;;5004289;28;20261;-68
2022/10/20 02:40:47;;;;;;;0.20;0.20;;;10.70;99.90;;;;;;4998711;28;20178;-69
2022/10/20 02:43:13;;;;;;;0.00;0.00;;;10.70;99.90;;;;;;5010160;28;20597;-69
2022/10/20 02:45:38;;;;;;;0.00;0.00;;;10.70;99.90;;;;;;5003087;28;20274;-68
2022/10/20 02:48:05;;;;;;;0.20;0.20;;;10.60;99.90;;;;;;5006586;28;20184;-68
2022/10/20 02:50:30;;;;;;;0.20;0.08;;;10.60;99.90;;;;;;4998134;28;20210;-68
2022/10/20 02:52:56;;;;;;;0.30;0.17;;;10.60;99.90;;;;;;5000131;28;20195;-69
2022/10/20 02:55:21;;;;;;;0.00;0.00;;;10.60;99.90;;;;;;4995156;28;20246;-69
2022/10/20 02:57:47;;;;;;;0.10;0.10;;;10.60;99.90;;;;;;5001425;28;20642;-69
2022/10/20 03:00:13;;;;;;;0.00;0.00;;;10.50;99.90;;;;;;4997325;28;20190;-69
2022/10/20 03:02:38;;;;;;;0.00;0.00;;;10.50;99.90;;;;;;5001844;28;20176;-69
2022/10/20 03:05:05;;;;;;;0.00;0.00;;;10.50;99.90;;;;;;4993427;28;20183;-69
2022/10/20 03:07:30;;;;;;;0.10;0.10;;;10.50;99.90;;;;;;4996072;28;20188;-69
2022/10/20 03:09:56;;;;;;;0.38;0.38;;;10.50;99.90;;;;;;4997278;28;20268;-68
2022/10/20 03:12:21;;;;;;;0.25;0.20;;;10.50;99.90;;;;;;5008969;28;20194;-68
2022/10/20 03:14:47;;;;;;;0.00;0.00;;;10.50;99.90;;;;;;5005204;28;20175;-68
2022/10/20 03:17:12;;;;;;;0.05;0.05;;;10.40;99.90;;;;;;5004923;28;20186;-68
2022/10/20 03:19:39;;;;;;;0.13;0.13;;;10.40;99.90;;;;;;5006912;28;20628;-68
2022/10/20 03:22:05;;;;;;;0.00;0.00;;;10.40;99.90;;;;;;4993618;28;20176;-68
2022/10/20 03:24:30;;;;;;;0.13;0.13;;;10.30;99.90;;;;;;4997098;28;20187;-68
2022/10/20 03:26:56;;;;;;;0.52;0.35;;;10.30;99.90;;;;;;5004168;28;20179;-68
2022/10/20 03:29:21;;;;;;;0.00;0.00;;;10.30;99.90;;;;;;5005501;28;20233;-68
2022/10/20 03:31:47;;;;;;;0.20;0.20;;;10.30;99.90;;;;;;5005801;28;20197;-68
2022/10/20 03:34:13;;;;;;;0.38;0.32;;;10.20;99.90;;;;;;4999268;28;20183;-68
2022/10/20 03:36:38;;;;;;;0.10;0.10;;;10.20;99.90;;;;;;5001474;28;20183;-66
2022/10/20 03:39:04;;;;;;;0.10;0.10;;;10.20;99.90;;;;;;5002634;28;20210;-66
2022/10/20 03:41:29;;;;;;;0.10;0.10;;;10.20;99.90;;;;;;5008035;28;20175;-66
2022/10/20 03:43:55;;;;;;;0.10;0.10;;;10.20;99.90;;;;;;5013652;28;20653;-69
2022/10/20 03:46:20;;;;;;;0.20;0.20;;;10.10;99.90;;;;;;5005137;28;20262;-67
2022/10/20 03:48:46;;;;;;;0.13;0.13;;;10.10;99.90;;;;;;5000334;28;20537;-67
2022/10/20 03:51:12;;;;;;;0.10;0.10;;;10.10;99.90;;;;;;4999339;28;20536;-69
2022/10/20 03:53:38;;;;;;;0.00;0.00;;;10.10;99.90;;;;;;4999939;28;20183;-69
2022/10/20 03:56:09;;;;;;;0.00;0.00;;;10.00;99.90;;;;;;4997070;28;20184;-69
2022/10/20 03:58:35;;;;;;;0.55;0.52;;;10.00;99.90;;;;;;5011651;28;20218;-72
2022/10/20 04:01:01;;;;;;;0.50;0.08;;;10.00;99.90;;;;;;5013013;28;20187;-71
2022/10/20 04:03:27;;;;;;;0.38;0.28;;;9.90;99.90;;;;;;5013117;28;20712;-70
2022/10/20 04:05:52;;;;;;;0.10;0.10;;;10.00;99.90;;;;;;5005507;28;20187;-72
2022/10/20 04:08:18;;;;;;;0.20;0.20;;;9.90;99.90;;;;;;5004973;28;20189;-70
2022/10/20 04:10:43;;;;;;;0.20;0.20;;;9.90;99.90;;;;;;5009116;28;20191;-69
2022/10/20 04:13:09;;;;;;;0.15;0.10;;;9.90;99.90;;;;;;4998779;28;20179;-69
2022/10/20 04:15:34;;;;;;;0.00;0.00;;;9.90;99.90;;;;;;5014645;28;20206;-73
2022/10/20 04:18:00;;;;;;;0.00;0.00;;;9.90;99.90;;;;;;5004277;28;20207;-72
2022/10/20 04:20:25;;;;;;;0.08;0.08;;;9.90;99.90;;;;;;5004454;28;20190;-72
2022/10/20 04:22:51;;;;;;;0.10;0.08;;;9.90;99.90;;;;;;5012828;28;20273;-72
2022/10/20 04:25:16;;;;;;;0.17;0.17;;;9.90;99.90;;;;;;5000485;28;20188;-72
2022/10/20 04:27:42;;;;;;;0.10;0.10;;;9.90;99.90;;;;;;4995399;28;20184;-72
2022/10/20 04:30:08;;;;;;;0.30;0.30;;;9.90;99.90;;;;;;5013982;28;20720;-71
2022/10/20 04:32:34;;;;;;;0.00;0.00;;;9.90;99.90;;;;;;5014122;28;20660;-73
2022/10/20 04:35:00;;;;;;;0.13;0.13;;;9.90;99.90;;;;;;5013959;28;20182;-69
2022/10/20 04:37:26;;;;;;;0.10;0.10;;;9.90;99.90;;;;;;5012720;28;20666;-73
2022/10/20 04:39:51;;;;;;;0.32;0.32;;;9.90;99.90;;;;;;5013911;28;20226;-72
2022/10/20 04:42:17;;;;;;;0.10;0.10;;;9.90;99.90;;;;;;5013857;28;20175;-73
2022/10/20 04:44:43;;;;;;;0.20;0.20;;;9.90;99.90;;;;;;5003209;28;20603;-71
2022/10/20 04:47:09;;;;;;;0.52;0.05;;;9.90;99.90;;;;;;5014076;28;20215;-70
2022/10/20 04:49:35;;;;;;;0.00;0.00;;;9.90;99.90;;;;;;5013833;28;20186;-71
2022/10/20 04:52:00;;;;;;;0.20;0.20;;;9.90;99.90;;;;;;5013302;28;20183;-71
2022/10/20 04:54:26;;;;;;;0.00;0.00;;;9.90;99.90;;;;;;5013989;28;20175;-70
2022/10/20 04:56:52;;;;;;;0.00;0.00;;;9.90;99.90;;;;;;5013934;28;20538;-71
2022/10/20 04:59:17;;;;;;;0.22;0.22;;;9.90;99.90;;;;;;5013763;28;20218;-70
2022/10/20 05:01:43;;;;;;;0.00;0.00;;;9.90;99.90;;;;;;5013856;28;20302;-71
2022/10/20 05:04:09;;;;;;;0.00;0.00;;;9.90;99.90;;;;;;5013670;28;20642;-71
2022/10/20 05:06:35;;;;;;;0.10;0.10;;;9.90;99.90;;;;;;5013571;28;20631;-70
2022/10/20 05:09:03;;;;;;;0.47;0.47;;;9.90;99.90;;;;;;5013697;28;20191;-71
2022/10/20 05:11:30;;;;;;;0.28;0.28;;;9.90;99.90;;;;;;5013559;28;20182;-70
2022/10/20 05:13:55;;;;;;;1.70;0.35;;;9.90;99.90;;;;;;5013479;28;20186;-71
2022/10/20 05:16:21;;;;;;;0.05;0.05;;;9.90;99.90;;;;;;5013500;28;20178;-70
2022/10/20 05:18:47;;;;;;;0.30;0.30;;;9.90;99.90;;;;;;5013484;28;20218;-71
2022/10/20 05:21:17;;;;;;;0.00;0.00;;;9.90;99.90;;;;;;5012445;28;20167;-71
2022/10/20 05:23:43;;;;;;;0.00;0.00;;;9.90;99.90;;;;;;5013369;28;20189;-71
2022/10/20 05:26:15;;;;;;;0.03;0.03;;;9.80;99.90;;;;;;5013348;28;20214;-71
2022/10/20 05:28:46;;;;;;;0.10;0.10;;;9.80;99.90;;;;;;5013020;28;20182;-71
2022/10/20 05:31:12;;;;;;;0.00;0.00;;;9.80;99.90;;;;;;5013469;28;20572;-71
2022/10/20 05:33:38;;;;;;;0.00;0.00;;;9.80;99.90;;;;;;5013346;28;20198;-71
2022/10/20 05:36:08;;;;;;;0.00;0.00;;;9.80;99.90;;;;;;5013185;28;20179;-71
2022/10/20 05:38:35;;;;;;;0.00;0.00;;;9.80;99.90;;;;;;5012957;28;20222;-71
2022/10/20 05:41:09;;;;;;;0.20;0.20;;;9.80;99.90;;;;;;5012912;28;20524;-71
2022/10/20 05:43:35;;;;;;;0.00;0.00;;;9.90;99.90;;;;;;5012930;28;20185;-71
2022/10/20 05:46:01;;;;;;;0.00;0.00;;;9.80;99.90;;;;;;5012987;28;20171;-71
2022/10/20 05:48:26;;;;;;;0.38;0.38;;;9.90;99.90;;;;;;5012903;28;20186;-71
2022/10/20 05:50:52;;;;;;;0.05;0.05;;;9.90;99.90;;;;;;5012949;28;20209;-70
2022/10/20 05:53:18;;;;;;;0.00;0.00;;;9.90;99.90;;;;;;5012680;28;20876;-70
2022/10/20 05:55:44;;;;;;;0.05;0.05;;;10.00;99.90;;;;;;5013079;28;20182;-71
2022/10/20 05:58:09;;;;;;;0.00;0.00;;;10.00;99.90;;;;;;5012944;28;20210;-70
2022/10/20 06:00:40;;;;;;;0.20;0.20;;;10.00;99.90;;;;;;5011528;28;20187;-71
2022/10/20 06:03:07;;;;;;;0.10;0.10;;;10.10;99.90;;;;;;5012579;28;20167;-71
2022/10/20 06:05:33;;;;;;;0.13;0.13;;;10.20;99.90;;;;;;5012083;28;20270;-71
2022/10/20 06:07:58;;;;;;;0.00;0.00;;;10.30;99.90;;;;;;5012603;28;20679;-71
2022/10/20 06:10:24;;;;;;;0.43;0.30;;;10.30;99.90;;;;;;5012631;28;20186;-71
2022/10/20 06:12:50;;;;;;;0.20;0.20;;;10.40;99.90;;;;;;5012652;28;20527;-71
2022/10/20 06:15:15;;;;;;;0.13;0.13;;;10.50;99.90;;;;;;5012532;28;20558;-70
2022/10/20 06:17:41;;;;;;;0.10;0.10;;;10.60;99.90;;;;;;5012624;28;20171;-71
2022/10/20 06:20:07;;;;;;;0.20;0.20;;;10.70;99.90;;;;;;5012297;28;20226;-71
2022/10/20 06:22:32;;;;;;;0.00;0.00;;;10.80;99.90;;;;;;5012321;28;20194;-71
2022/10/20 06:24:58;;;;;;;0.10;0.10;;;10.90;99.90;;;;;;5012477;28;20183;-71
2022/10/20 06:27:23;;;;;;;0.00;0.00;;;11.00;99.90;;;;;;5012566;28;20171;-71
2022/10/20 06:29:49;;;;;;;0.10;0.10;;;11.00;99.90;;;;;;5012122;28;20245;-71
2022/10/20 06:32:17;;;;;;;0.00;0.00;;;11.20;99.90;;;;;;5012189;28;20229;-70
2022/10/20 06:34:42;;;;;;;0.00;0.00;;;11.20;99.90;;;;;;5012198;28;20824;-71
2022/10/20 06:37:08;;;;;;;0.28;0.28;;;11.30;99.90;;;;;;5012351;28;20270;-71
2022/10/20 06:39:34;;;;;;;0.00;0.00;;;11.40;99.90;;;;;;5012467;28;20269;-71
2022/10/20 06:42:00;;;;;;;0.10;0.10;;;11.50;99.90;;;;;;5012344;28;20179;-70
2022/10/20 06:44:26;;;;;;;0.00;0.00;;;11.50;99.90;;;;;;5012220;28;20183;-70
2022/10/20 06:46:53;;;;;;;0.00;0.00;;;11.60;99.90;;;;;;5012491;28;20175;-71
2022/10/20 06:49:19;;;;;;;0.00;0.00;;;11.70;99.90;;;;;;5012339;28;20395;-69
2022/10/20 06:51:45;;;;;;;0.17;0.17;;;11.80;99.90;;;;;;5012363;28;20178;-70
2022/10/20 06:54:11;;;;;;;0.25;0.25;;;11.80;99.90;;;;;;5012207;28;20205;-70
2022/10/20 06:56:38;;;;;;;0.00;0.00;;;12.00;99.90;;;;;;5012201;28;20183;-71
2022/10/20 06:59:03;;;;;;;1.48;0.20;;;12.10;99.90;;;;;;5012167;28;20272;-72
2022/10/20 07:01:32;;;;;;;0.00;0.00;;;12.20;99.90;;;;;;5012191;28;20178;-71
2022/10/20 07:03:59;;;;;;;0.00;0.00;;;12.30;99.90;;;;;;5012212;28;20182;-70
2022/10/20 07:06:31;;;;;;;0.00;0.00;;;12.40;99.90;;;;;;5012093;28;20531;-70
2022/10/20 07:08:58;;;;;;;0.17;0.17;;;12.50;99.90;;;;;;5007521;28;20184;-71
2022/10/20 07:11:28;;;;;;;0.10;0.10;;;12.70;99.90;;;;;;4992383;28;20643;-70
2022/10/20 07:13:56;;;;;;;0.15;0.15;;;12.80;99.90;;;;;;4992458;28;20184;-70
2022/10/20 07:16:24;;;;;;;0.10;0.10;;;12.90;99.90;;;;;;4994892;28;20179;-72
2022/10/20 07:18:50;;;;;;;0.00;0.00;;;13.10;99.90;;;;;;4996161;28;20219;-71
2022/10/20 07:21:18;;;;;;;0.00;0.00;;;13.30;99.90;;;;;;4996205;28;20517;-71
2022/10/20 07:23:44;;;;;;;0.10;0.10;;;13.50;99.90;;;;;;4996216;28;20237;-71
2022/10/20 07:26:17;;;;;;;0.00;0.00;;;13.80;99.90;;;;;;5011225;28;20180;-71
2022/10/20 07:28:44;;;;;;;1.02;0.98;;;14.00;99.90;;;;;;5005040;28;20242;-71
2022/10/20 07:31:17;;;;;;;0.55;0.38;;;14.30;99.90;;;;;;5015582;28;20194;-71
2022/10/20 07:33:43;;;;;;;0.17;0.17;;;14.40;99.90;;;;;;5015562;28;20178;-72
2022/10/20 07:36:23;;;;;;;0.10;0.10;;;14.40;99.90;;;;;;5015577;28;20688;-70
2022/10/20 07:38:51;;;;;;;0.00;0.00;;;14.50;99.90;;;;;;5015419;28;20241;-71
2022/10/20 07:41:17;;;;;;;0.03;0.03;;;14.70;99.90;;;;;;5015426;28;20258;-71
2022/10/20 07:43:43;;;;;;;0.00;0.00;;;14.90;99.90;;;;;;5015333;28;20704;-71
2022/10/20 07:46:10;;;;;;;0.08;0.08;;;15.30;99.90;;;;;;5015502;28;20185;-71
2022/10/20 07:48:37;;;;;;;0.00;0.00;;;15.60;99.90;;;;;;5015219;28;20174;-71
2022/10/20 07:51:16;;;;;;;0.00;0.00;;;15.90;99.90;;;;;;5015316;28;20222;-71
2022/10/20 07:53:42;;;;;;;0.00;0.00;;;16.10;99.90;;;;;;5015330;28;20221;-71
2022/10/20 07:56:08;;;;;;;0.00;0.00;;;16.10;99.90;;;;;;5015041;28;20217;-71
2022/10/20 07:58:34;;;;;;;0.30;0.30;;;16.10;99.90;;;;;;5014784;28;20675;-71
2022/10/20 08:00:59;;;;;;;0.00;0.00;;;16.20;99.90;;;;;;5015200;28;20309;-71
2022/10/20 08:03:25;;;;;;;0.00;0.00;;;16.20;99.90;;;;;;5014834;28;20178;-71
2022/10/20 08:05:50;;;;;;;0.22;0.10;;;16.20;99.90;;;;;;5015017;28;20181;-71
2022/10/20 08:08:16;;;;;;;0.00;0.00;;;16.30;99.90;;;;;;5014597;28;20538;-71
2022/10/20 08:10:41;;;;;;;0.00;0.00;;;16.40;99.90;;;;;;5014961;28;20187;-71
2022/10/20 08:13:07;;;;;;;0.00;0.00;;;16.60;99.90;;;;;;5014734;28;20167;-69
2022/10/20 08:15:32;;;;;;;0.00;0.00;;;16.70;99.90;;;;;;5014661;28;20182;-71
2022/10/20 08:17:58;;;;;;;0.00;0.00;;;16.70;99.90;;;;;;5014861;28;20179;-71
2022/10/20 08:20:24;;;;;;;0.17;0.17;;;16.70;99.90;;;;;;5014552;28;20185;-71
2022/10/20 08:22:49;;;;;;;0.00;0.00;;;16.70;99.90;;;;;;5014705;28;20179;-71
2022/10/20 08:25:15;;;;;;;0.08;0.08;;;16.90;99.90;;;;;;5014360;28;20277;-71
2022/10/20 08:27:41;;;;;;;0.00;0.00;;;17.00;99.90;;;;;;5013272;28;20179;-71
2022/10/20 08:30:07;;;;;;;0.00;0.00;;;17.10;99.90;;;;;;5014269;28;20258;-71
2022/10/20 08:32:33;;;;;;;0.00;0.00;;;17.20;99.90;;;;;;5014137;28;20217;-72
2022/10/20 08:34:58;;;;;;;0.00;0.00;;;17.30;99.90;;;;;;5014356;28;20203;-71
2022/10/20 08:37:24;;;;;;;0.00;0.00;;;17.40;99.90;;;;;;5014279;28;20187;-71
2022/10/20 08:39:49;;;;;;;0.00;0.00;;;17.30;99.90;;;;;;5014038;28;20260;-71
2022/10/20 08:42:16;;;;;;;0.05;0.05;;;17.30;99.90;;;;;;5013968;28;20305;-71
2022/10/20 08:44:44;;;;;;;0.00;0.00;;;17.30;99.90;;;;;;5014164;28;20186;-71
2022/10/20 08:47:33;;;;;;;0.38;0.25;;;17.40;99.90;;;;;;5013940;28;20182;-71
2022/10/20 08:50:00;;;;;;;0.00;0.00;;;17.50;99.90;;;;;;5013998;28;20202;-71
2022/10/20 08:52:26;;;;;;;0.00;0.00;;;17.50;99.90;;;;;;5012683;28;20233;-71
2022/10/20 08:54:54;;;;;;;0.00;0.00;;;17.40;99.90;;;;;;5013887;28;20248;-71
2022/10/20 08:57:22;;;;;;;0.00;0.00;;;17.50;99.90;;;;;;5013874;28;20187;-71
2022/10/20 08:59:50;;;;;;;0.00;0.00;;;17.60;99.90;;;;;;5013761;28;20206;-71
2022/10/20 09:02:16;;;;;;;0.00;0.00;;;17.70;99.90;;;;;;5013805;28;20178;-71
2022/10/20 09:04:53;;;;;;;0.00;0.00;;;17.90;99.90;;;;;;5013877;28;20190;-71
2022/10/20 09:07:32;;;;;;;0.00;0.00;;;18.10;99.90;;;;;;5013720;28;20217;-72
2022/10/20 09:10:16;;;;;;;0.00;0.00;;;18.10;99.90;;;;;;4994245;28;20573;-72
2022/10/20 09:12:45;;;;;;;0.00;0.00;;;18.10;99.90;;;;;;4994144;28;20262;-71
2022/10/20 09:15:13;;;;;;;0.00;0.00;;;18.20;99.90;;;;;;4993920;28;20475;-71
2022/10/20 09:18:01;;;;;;;0.05;0.05;;;18.40;99.90;;;;;;4993884;28;20195;-71
2022/10/20 09:20:32;;;;;;;0.00;0.00;;;18.60;99.90;;;;;;4993496;28;20318;-72
2022/10/20 09:22:58;;;;;;;0.00;0.00;;;18.80;99.90;;;;;;4993969;28;20180;-72
2022/10/20 09:25:26;;;;;;;0.00;0.00;;;18.90;99.90;;;;;;4993754;28;20179;-71
2022/10/20 09:27:54;;;;;;;0.00;0.00;;;19.00;99.90;;;;;;4995993;28;20589;-72
2022/10/20 09:30:32;;;;;;;0.00;0.00;;;19.10;99.90;;;;;;5013074;28;20231;-72
2022/10/20 09:32:58;;;;;;;0.00;0.00;;;19.30;99.90;;;;;;5013332;28;20526;-72
2022/10/20 09:35:25;;;;;;;0.00;0.00;;;19.30;99.90;;;;;;5012915;28;20178;-71
2022/10/20 09:38:14;;;;;;;0.00;0.00;;;19.40;99.90;;;;;;5012987;28;20178;-72
2022/10/20 09:40:55;;;;;;;0.00;0.00;;;19.30;99.90;;;;;;5013176;28;20313;-72
2022/10/20 09:43:20;;;;;;;0.08;0.05;;;19.40;99.90;;;;;;5013000;28;20305;-71
2022/10/20 09:45:53;;;;;;;0.00;0.00;;;19.50;99.90;;;;;;5013082;28;20602;-72
2022/10/20 09:48:32;;;;;;;0.00;0.00;;;19.70;99.90;;;;;;5013014;28;20175;-71
2022/10/20 09:50:59;;;;;;;0.05;0.05;;;19.80;99.90;;;;;;5013128;28;20178;-71
2022/10/20 09:53:34;;;;;;;0.00;0.00;;;19.80;99.90;;;;;;5012893;28;20177;-71
2022/10/20 09:56:00;;;;;;;0.00;0.00;;;19.70;99.90;;;;;;5012846;28;20664;-72
2022/10/20 09:58:38;;;;;;;0.00;0.00;;;19.60;99.90;;;;;;5012803;28;20215;-72
2022/10/20 10:01:13;;;;;;;0.00;0.00;;;19.60;99.90;;;;;;5012770;28;20183;-71
2022/10/20 10:03:43;;;;;;;0.10;0.10;;;19.60;99.90;;;;;;5012858;28;20166;-72
2022/10/20 10:06:30;;;;;;;0.00;0.00;;;19.60;99.90;;;;;;5012665;28;20190;-71
2022/10/20 10:08:59;;;;;;;0.73;0.52;;;19.60;99.90;;;;;;5012465;28;20744;-71
2022/10/20 10:11:35;;;;;;;0.00;0.00;;;19.60;99.90;;;;;;5012605;28;20179;-71
2022/10/20 10:14:02;;;;;;;0.00;0.00;;;19.60;99.90;;;;;;5012695;28;20178;-71
2022/10/20 10:16:39;;;;;;;0.00;0.00;;;19.70;99.90;;;;;;5012544;28;20258;-71
2022/10/20 10:19:05;;;;;;;0.00;0.00;;;19.90;99.90;;;;;;5012563;28;20218;-72
2022/10/20 10:21:45;;;;;;;0.17;0.13;;;20.40;99.90;;;;;;5012417;28;20174;-71
2022/10/20 10:24:35;;;;;;;0.63;0.63;;;20.80;99.90;;;;;;5012358;28;20289;-71
2022/10/20 10:27:01;;;;;;;0.05;0.05;;;20.80;99.90;;;;;;5012473;28;20179;-72
2022/10/20 10:29:30;;;;;;;0.00;0.00;;;21.00;99.90;;;;;;5012052;28;20238;-71
2022/10/20 10:32:13;;;;;;;0.00;0.00;;;21.00;99.90;;;;;;5012308;28;20175;-71
2022/10/20 10:34:43;;;;;;;0.00;0.00;;;20.90;99.90;;;;;;5012230;28;20533;-72
2022/10/20 10:37:15;;;;;;;0.00;0.00;;;20.90;99.90;;;;;;5012304;28;20186;-71
2022/10/20 10:39:42;;;;;;;0.00;0.00;;;20.80;99.90;;;;;;5012385;28;20214;-71
2022/10/20 10:42:24;;;;;;;0.00;0.00;;;20.70;99.90;;;;;;5012296;28;20197;-71
2022/10/20 10:45:08;;;;;;;0.00;0.00;;;20.60;99.90;;;;;;5012353;28;20200;-71
2022/10/20 10:48:06;;;;;;;0.00;0.00;;;20.60;99.90;;;;;;5012204;28;20260;-71
2022/10/20 10:50:50;;;;;;;0.00;0.00;;;20.60;99.90;;;;;;5013346;28;20189;-72
2022/10/20 10:53:44;;;;;;;0.00;0.00;;;20.60;99.90;;;;;;5016091;28;20175;-71
2022/10/20 10:56:39;;;;;;;0.00;0.00;;;20.60;99.90;;;;;;5016274;28;20189;-71
2022/10/20 10:59:27;;;;;;;0.00;0.00;;;20.60;99.90;;;;;;5016131;28;20207;-71
2022/10/20 11:02:11;;;;;;;0.00;0.00;;;20.60;99.90;;;;;;5016078;28;20177;-72
2022/10/20 11:05:05;;;;;;;0.08;0.08;;;20.60;99.90;;;;;;5016239;28;20233;-72
2022/10/20 11:07:30;;;;;;;0.15;0.10;;;20.50;99.90;;;;;;5015926;28;20206;-72
2022/10/20 11:10:25;;;;;;;0.20;0.20;;;20.50;99.90;;;;;;5015954;28;20171;-72
2022/10/20 11:12:57;;;;;;;0.00;0.00;;;20.40;99.90;;;;;;5015935;28;20284;-72
2022/10/20 11:15:35;;;;;;;0.00;0.00;;;20.20;99.90;;;;;;5015919;28;20193;-71
2022/10/20 11:18:20;;;;;;;0.00;0.00;;;20.20;99.90;;;;;;5015802;28;20178;-71
2022/10/20 11:21:11;;;;;;;0.00;0.00;;;20.10;99.90;;;;;;5014601;28;20601;-71
2022/10/20 11:23:51;;;;;;;0.00;0.00;;;20.10;99.90;;;;;;5015724;28;20182;-72
2022/10/20 11:26:34;;;;;;;0.05;0.05;;;19.90;99.90;;;;;;5015940;28;20190;-72
2022/10/20 11:29:03;;;;;;;0.00;0.00;;;19.90;99.90;;;;;;5015519;28;20226;-72
2022/10/20 11:31:48;;;;;;;0.00;0.00;;;19.90;99.90;;;;;;5015643;28;20174;-71
2022/10/20 11:34:34;;;;;;;0.00;0.00;;;19.90;99.90;;;;;;5015406;28;20185;-71
2022/10/20 11:37:23;;;;;;;0.20;0.20;;;19.90;99.90;;;;;;5015369;28;20620;-71
2022/10/20 11:40:15;;;;;;;0.00;0.00;;;19.90;99.90;;;;;;5015501;28;20313;-71
2022/10/20 11:42:52;;;;;;;0.20;0.20;;;19.90;99.90;;;;;;5010699;28;20646;-72
2022/10/20 11:45:46;;;;;;;0.08;0.08;;;19.80;99.90;;;;;;5015185;28;20590;-71
2022/10/20 11:48:29;;;;;;;0.00;0.00;;;19.70;99.90;;;;;;5011097;28;20195;-72
2022/10/20 11:51:34;;;;;;;0.00;0.00;;;19.60;99.90;;;;;;5015310;28;20190;-71
2022/10/20 11:54:15;;;;;;;0.00;0.00;;;19.40;99.90;;;;;;5015376;28;20191;-71
2022/10/20 11:57:07;;;;;;;0.00;0.00;;;19.40;99.90;;;;;;5015117;28;20211;-71
2022/10/20 11:59:58;;;;;;;0.00;0.00;;;19.30;99.90;;;;;;5012590;28;20248;-71
2022/10/20 12:03:02;;;;;;;0.00;0.00;;;19.30;99.90;;;;;;5014946;28;20225;-72
2022/10/20 12:05:46;;;;;;;0.00;0.00;;;19.30;99.90;;;;;;5015068;28;20261;-71
2022/10/20 12:08:40;;;;;;;0.15;0.15;;;19.20;99.90;;;;;;5014719;28;20183;-71
2022/10/20 12:11:47;;;;;;;0.08;0.00;;;19.20;99.90;;;;;;5014995;28;20213;-72
2022/10/20 12:14:12;;;;;;;0.03;0.03;;;19.30;99.90;;;;;;5014832;28;20233;-71
2022/10/20 12:17:04;;;;;;;0.10;0.10;;;19.30;99.90;;;;;;5014749;28;20179;-71
2022/10/20 12:19:32;;;;;;;0.00;0.00;;;19.30;99.90;;;;;;5014682;28;20246;-71
2022/10/20 12:22:22;;;;;;;0.00;0.00;;;19.50;99.90;;;;;;5014771;28;20670;-71
2022/10/20 12:24:51;;;;;;;0.00;0.00;;;19.50;99.90;;;;;;5014495;28;20186;-71
2022/10/20 12:27:28;;;;;;;0.00;0.00;;;19.60;99.90;;;;;;5014674;28;20178;-71
2022/10/20 12:29:55;;;;;;;0.00;0.00;;;19.70;99.90;;;;;;5005375;28;20227;-72
2022/10/20 12:32:22;;;;;;;0.00;0.00;;;19.70;99.90;;;;;;4976070;28;20199;-68
2022/10/20 12:34:52;;;;;;;0.00;0.00;;;19.80;99.90;;;;;;5008141;28;20646;-68
2022/10/20 12:37:25;;;;;;;0.10;0.10;;;19.80;99.90;;;;;;5014677;28;20216;-68
2022/10/20 12:39:53;;;;;;;0.32;0.32;;;19.60;99.90;;;;;;5009123;28;20211;-69
2022/10/20 12:42:22;;;;;;;0.00;0.00;;;19.50;99.90;;;;;;4994509;28;20266;-68
2022/10/20 12:44:49;;;;;;;0.00;0.00;;;19.40;99.90;;;;;;4997944;28;20179;-68
2022/10/20 12:47:23;;;;;;;0.10;0.10;;;19.30;99.90;;;;;;5013716;28;20174;-68
2022/10/20 12:50:37;;;;;;;0.03;0.00;;;19.30;99.90;;;;;;5010658;28;20202;-69
2022/10/20 12:53:27;;;;;;;0.00;0.00;;;19.20;99.90;;;;;;4985529;28;20194;-68
2022/10/20 12:55:57;;;;;;;0.00;0.00;;;19.10;99.90;;;;;;5005067;28;20179;-68
2022/10/20 12:58:26;;;;;;;0.00;0.00;;;19.10;99.90;;;;;;5009574;28;20301;-67
2022/10/20 13:00:51;;;;;;;0.00;0.00;;;19.10;99.90;;;;;;5014180;28;20222;-67
2022/10/20 13:03:45;;;;;;;0.10;0.10;;;19.10;99.90;;;;;;5013800;28;20264;-67
2022/10/20 13:06:23;;;;;;;0.10;0.10;;;19.20;99.90;;;;;;5013860;28;20240;-68
2022/10/20 13:09:04;;;;;;;0.00;0.00;;;19.20;99.90;;;;;;5013752;28;20202;-68